Time;durP1;ratioP1;P1;durP2;ratioP2;P2;SDS_P1;SDS_P2;PMS_P1;PMS_P2;Temp;Humidity;BMP_temperature;BMP_pressure;BME280_temperature;BME280_humidity;BME280_pressure;Samples;Min_cycle;Max_cycle;Signal;HPM_P1;HPM_P2
2021/06/02 00:00:16;;;;;;;9.20;3.40;;;13.20;56.30;;;;;;5055124;28;19913;-72
2021/06/02 00:02:47;;;;;;;5.95;3.00;;;13.20;56.90;;;;;;5071759;28;20508;-72
2021/06/02 00:05:15;;;;;;;7.45;2.67;;;13.10;57.30;;;;;;5055075;28;20035;-72
2021/06/02 00:07:42;;;;;;;8.23;2.70;;;13.00;57.50;;;;;;5055009;28;20045;-72
2021/06/02 00:10:11;;;;;;;8.40;3.63;;;12.90;57.60;;;;;;5054943;28;20041;-71
2021/06/02 00:12:38;;;;;;;6.28;2.60;;;12.80;57.70;;;;;;5072733;28;20049;-71
2021/06/02 00:15:07;;;;;;;8.75;3.03;;;12.70;57.90;;;;;;5054730;28;20036;-72
2021/06/02 00:17:33;;;;;;;5.78;2.95;;;12.70;58.10;;;;;;5054889;28;20041;-72
2021/06/02 00:19:59;;;;;;;;;;;12.70;58.00;;;;;;5073197;28;20413;-72
2021/06/02 00:22:26;;;;;;;8.15;3.22;;;12.60;57.00;;;;;;5071600;28;20422;-72
2021/06/02 00:24:52;;;;;;;;;;;12.60;57.50;;;;;;5073151;28;20420;-72
2021/06/02 00:27:18;;;;;;;7.05;2.67;;;12.60;56.50;;;;;;5053860;28;19956;-72
2021/06/02 00:29:45;;;;;;;6.63;3.10;;;12.60;57.60;;;;;;5054735;28;20098;-72
2021/06/02 00:32:14;;;;;;;7.03;2.83;;;12.60;57.80;;;;;;5055020;28;20048;-71
2021/06/02 00:34:40;;;;;;;7.43;2.88;;;12.60;58.10;;;;;;5071330;28;20037;-72
2021/06/02 00:37:09;;;;;;;7.45;3.25;;;12.70;58.20;;;;;;5073100;28;20044;-72
2021/06/02 00:39:36;;;;;;;7.43;2.88;;;12.70;58.50;;;;;;5054738;28;20110;-71
2021/06/02 00:42:03;;;;;;;6.63;3.00;;;12.60;58.70;;;;;;5073015;28;20041;-76
2021/06/02 00:44:29;;;;;;;9.40;2.78;;;12.50;58.80;;;;;;5054594;28;20120;-71
2021/06/02 00:47:15;;;;;;;;;;;12.50;59.00;;;;;;5073538;28;20149;-71
2021/06/02 00:49:42;;;;;;;6.30;2.72;;;12.50;58.10;;;;;;5037794;28;19970;-72
2021/06/02 00:52:09;;;;;;;6.90;2.92;;;12.40;58.80;;;;;;5054127;28;20050;-71
2021/06/02 00:54:55;;;;;;;9.80;3.50;;;12.40;59.00;;;;;;5054679;28;20386;-71
2021/06/02 00:57:26;;;;;;;13.95;4.07;;;12.50;59.30;;;;;;5054691;28;20140;-72
2021/06/02 01:00:06;;;;;;;10.27;4.25;;;12.40;59.10;;;;;;5071213;28;20128;-71
2021/06/02 01:02:36;;;;;;;9.27;4.40;;;12.40;59.30;;;;;;5072399;28;20067;-72
2021/06/02 01:05:05;;;;;;;10.70;4.25;;;12.40;59.40;;;;;;5054304;28;20045;-71
2021/06/02 01:07:34;;;;;;;11.75;4.03;;;12.40;59.60;;;;;;5072452;28;20430;-71
2021/06/02 01:10:01;;;;;;;7.20;3.47;;;12.40;59.70;;;;;;5054233;28;20040;-71
2021/06/02 01:12:30;;;;;;;8.40;3.63;;;12.40;59.40;;;;;;5054262;28;20417;-72
2021/06/02 01:14:58;;;;;;;8.38;3.47;;;12.30;60.10;;;;;;5072121;28;20033;-72
2021/06/02 01:17:28;;;;;;;9.25;3.28;;;12.30;60.30;;;;;;5054318;28;20067;-72
2021/06/02 01:19:57;;;;;;;9.38;3.20;;;12.20;60.30;;;;;;5054222;28;20124;-72
2021/06/02 01:22:25;;;;;;;6.63;3.65;;;12.20;60.10;;;;;;5071094;28;20044;-71
2021/06/02 01:24:51;;;;;;;10.10;3.72;;;12.20;60.10;;;;;;5072139;28;20091;-72
2021/06/02 01:27:17;;;;;;;;;;;12.10;60.50;;;;;;5073136;28;20060;-72
2021/06/02 01:29:47;;;;;;;8.73;3.92;;;12.10;59.70;;;;;;5054265;28;19942;-72
2021/06/02 01:33:10;;;;;;;10.60;4.18;;;12.10;60.50;;;;;;5053872;28;20044;-71
2021/06/02 01:36:13;;;;;;;7.35;3.47;;;12.10;60.60;;;;;;5072064;28;20102;-72
2021/06/02 01:39:36;;;;;;;9.27;3.70;;;12.00;60.50;;;;;;5039996;28;20119;-71
2021/06/02 01:42:47;;;;;;;6.93;3.40;;;12.00;60.70;;;;;;5076043;28;20115;-71
2021/06/02 01:46:09;;;;;;;6.75;3.55;;;12.00;61.00;;;;;;5057452;28;20149;-71
2021/06/02 01:49:16;;;;;;;7.50;3.28;;;11.90;60.80;;;;;;5057515;28;20528;-72
2021/06/02 01:52:11;;;;;;;5.90;3.10;;;11.90;61.20;;;;;;5057641;28;20404;-71
2021/06/02 01:55:34;;;;;;;8.15;3.90;;;11.90;61.40;;;;;;5040916;28;20538;-72
2021/06/02 01:58:37;;;;;;;7.05;3.80;;;11.90;61.30;;;;;;5057365;28;20044;-71
2021/06/02 02:01:47;;;;;;;8.25;3.95;;;11.90;61.50;;;;;;5075454;28;20047;-72
2021/06/02 02:05:14;;;;;;;8.18;4.00;;;11.90;61.40;;;;;;5075153;28;20128;-72
2021/06/02 02:08:18;;;;;;;6.68;3.42;;;12.00;61.10;;;;;;5057397;28;20053;-72
2021/06/02 02:11:40;;;;;;;7.88;4.05;;;12.00;61.00;;;;;;5057263;28;20431;-72
2021/06/02 02:15:02;;;;;;;8.48;3.20;;;12.00;60.90;;;;;;5074873;28;20409;-71
2021/06/02 02:18:04;;;;;;;8.10;2.95;;;12.10;60.90;;;;;;5057019;28;20044;-72
2021/06/02 02:20:50;;;;;;;7.88;2.83;;;12.00;61.00;;;;;;5056873;28;20033;-72
2021/06/02 02:23:34;;;;;;;7.38;2.70;;;12.10;61.40;;;;;;5074891;28;20460;-71
2021/06/02 02:26:29;;;;;;;5.43;2.88;;;12.10;61.40;;;;;;5056904;28;20040;-72
2021/06/02 02:29:25;;;;;;;8.23;3.45;;;12.10;61.30;;;;;;5056951;28;20048;-72
2021/06/02 02:32:43;;;;;;;12.68;4.20;;;12.10;61.40;;;;;;5075136;28;20467;-72
2021/06/02 02:35:58;;;;;;;16.65;4.25;;;12.10;61.30;;;;;;5056664;28;20512;-71
2021/06/02 02:39:01;;;;;;;6.55;3.22;;;12.10;61.10;;;;;;5056578;28;20132;-72
2021/06/02 02:44:44;;;;;;;9.48;3.55;;;12.00;61.60;;;;;;5074687;28;20516;-73
2021/06/02 02:47:33;;;;;;;6.85;3.08;;;12.00;61.60;;;;;;5056802;28;20123;-71
2021/06/02 02:50:33;;;;;;;7.88;4.32;;;12.00;61.80;;;;;;5073604;28;20041;-71
2021/06/02 02:53:18;;;;;;;8.32;3.65;;;12.00;61.90;;;;;;5074025;28;20052;-72
2021/06/02 02:55:54;;;;;;;6.85;3.70;;;12.00;62.10;;;;;;5039708;28;20047;-71
2021/06/02 02:58:57;;;;;;;6.53;2.70;;;11.90;62.10;;;;;;5056390;28;20044;-72
2021/06/02 03:02:03;;;;;;;6.47;3.05;;;11.90;62.00;;;;;;5074386;28;20094;-72
2021/06/02 03:04:40;;;;;;;5.35;2.75;;;11.90;62.30;;;;;;5056309;28;20392;-71
2021/06/02 03:07:06;;;;;;;;;;;11.80;62.50;;;;;;5056928;28;20033;-71
2021/06/02 03:09:51;;;;;;;7.15;3.38;;;11.70;62.00;;;;;;5056131;28;19920;-71
2021/06/02 03:12:55;;;;;;;6.40;3.13;;;11.70;62.70;;;;;;5056540;28;20086;-72
2021/06/02 03:15:44;;;;;;;9.80;2.90;;;11.60;62.80;;;;;;5055820;28;20577;-72
2021/06/02 03:18:45;;;;;;;8.02;3.22;;;11.60;63.00;;;;;;5072575;28;20040;-71
2021/06/02 03:21:14;;;;;;;9.25;3.22;;;11.40;63.90;;;;;;5055952;28;20041;-72
2021/06/02 03:24:10;;;;;;;7.57;3.30;;;11.20;64.80;;;;;;5055704;28;20037;-72
2021/06/02 03:26:41;;;;;;;7.85;3.13;;;11.00;65.20;;;;;;5074034;28;20114;-72
2021/06/02 03:29:45;;;;;;;5.93;3.00;;;10.90;64.80;;;;;;5055731;28;20040;-72
2021/06/02 03:33:06;;;;;;;6.57;3.25;;;11.00;64.60;;;;;;5073448;28;20045;-72
2021/06/02 03:36:28;;;;;;;10.45;3.25;;;11.00;63.90;;;;;;5073415;28;20378;-72
2021/06/02 03:39:19;;;;;;;8.27;3.45;;;11.00;63.80;;;;;;5073297;28;20039;-72
2021/06/02 03:42:24;;;;;;;8.05;3.30;;;11.00;63.90;;;;;;5055501;28;20518;-72
2021/06/02 03:45:47;;;;;;;9.07;4.22;;;11.00;63.70;;;;;;5073230;28;20451;-71
2021/06/02 03:49:09;;;;;;;6.60;3.33;;;11.00;63.70;;;;;;5073258;28;20048;-72
2021/06/02 03:51:56;;;;;;;9.70;3.53;;;11.00;63.50;;;;;;5073479;28;20044;-72
2021/06/02 03:55:02;;;;;;;7.43;3.85;;;10.90;63.80;;;;;;5055187;28;20056;-72
2021/06/02 03:57:38;;;;;;;7.20;3.45;;;10.90;63.80;;;;;;5055231;28;20501;-72
2021/06/02 04:00:44;;;;;;;8.75;2.88;;;11.00;64.10;;;;;;5055058;28;20051;-72
2021/06/02 04:03:37;;;;;;;5.75;3.10;;;10.90;63.90;;;;;;5055211;28;20123;-72
2021/06/02 04:06:44;;;;;;;8.35;3.50;;;11.00;63.80;;;;;;5055125;28;20432;-71
2021/06/02 04:09:30;;;;;;;6.88;3.47;;;11.00;63.60;;;;;;5071597;28;20403;-72
2021/06/02 04:12:31;;;;;;;6.65;3.20;;;11.10;63.90;;;;;;5073379;28;20033;-71
2021/06/02 04:15:17;;;;;;;7.13;3.75;;;11.10;63.90;;;;;;5072832;28;20044;-72
2021/06/02 04:17:49;;;;;;;8.40;3.50;;;11.10;63.80;;;;;;5054800;28;20044;-72
2021/06/02 04:20:18;;;;;;;7.63;3.53;;;11.20;63.90;;;;;;5054937;28;20035;-71
2021/06/02 04:23:05;;;;;;;8.10;3.28;;;11.20;63.90;;;;;;5071510;28;20064;-71
2021/06/02 04:25:32;;;;;;;10.52;3.63;;;11.30;63.60;;;;;;5054841;28;20048;-72
2021/06/02 04:28:01;;;;;;;8.45;3.42;;;11.30;63.90;;;;;;5054652;28;20417;-71
2021/06/02 04:30:31;;;;;;;10.25;4.10;;;11.40;64.10;;;;;;5071442;28;20045;-71
2021/06/02 04:33:00;;;;;;;7.85;3.42;;;11.40;64.20;;;;;;5071518;28;20052;-72
2021/06/02 04:35:27;;;;;;;15.70;5.15;;;11.50;64.20;;;;;;5054519;28;20063;-72
2021/06/02 04:37:57;;;;;;;14.95;4.97;;;11.60;64.00;;;;;;5054580;28;20045;-72
2021/06/02 04:40:24;;;;;;;11.35;4.20;;;11.70;64.20;;;;;;5071445;28;20036;-72
2021/06/02 04:42:51;;;;;;;8.55;3.95;;;11.80;63.50;;;;;;5054682;28;20040;-71
2021/06/02 04:45:24;;;;;;;13.43;4.82;;;11.90;64.30;;;;;;5054637;28;20040;-72
2021/06/02 04:47:51;;;;;;;8.38;4.00;;;12.00;64.20;;;;;;5071347;28;20052;-71
2021/06/02 04:50:42;;;;;;;12.75;4.50;;;12.10;63.60;;;;;;5054428;28;20052;-72
2021/06/02 04:53:26;;;;;;;11.50;4.70;;;12.20;64.00;;;;;;5054258;28;20045;-72
2021/06/02 04:56:30;;;;;;;9.80;4.45;;;12.30;64.00;;;;;;5072568;28;20047;-71
2021/06/02 04:58:56;;;;;;;11.85;5.88;;;12.50;64.10;;;;;;5072433;28;20086;-71
2021/06/02 05:02:01;;;;;;;14.98;5.38;;;12.60;63.90;;;;;;5054593;28;20052;-71
2021/06/02 05:05:10;;;;;;;9.52;4.88;;;12.70;64.20;;;;;;5054490;28;20102;-72
2021/06/02 05:08:43;;;;;;;15.35;5.55;;;12.80;64.20;;;;;;5072450;28;20524;-71
2021/06/02 05:12:05;;;;;;;11.95;4.80;;;12.90;64.10;;;;;;5072231;28;20183;-71
2021/06/02 05:15:27;;;;;;;9.43;4.90;;;13.00;64.20;;;;;;5076202;28;20106;-71
2021/06/02 05:18:08;;;;;;;10.93;4.97;;;13.00;63.90;;;;;;5076133;28;20060;-72
2021/06/02 05:24:55;;;;;;;10.75;5.10;;;13.20;64.00;;;;;;5076273;28;20048;-72
2021/06/02 05:27:59;;;;;;;14.52;5.60;;;13.30;63.90;;;;;;5076407;28;20045;-72
2021/06/02 05:31:02;;;;;;;11.48;6.05;;;13.40;63.80;;;;;;5076063;28;20053;-72
2021/06/02 05:33:31;;;;;;;14.80;6.75;;;13.50;63.70;;;;;;5075732;28;20094;-72
2021/06/02 05:36:23;;;;;;;13.27;5.78;;;13.60;63.60;;;;;;5075839;28;20508;-71
2021/06/02 05:39:45;;;;;;;13.73;5.60;;;13.70;63.80;;;;;;5074419;28;20068;-72
2021/06/02 05:42:56;;;;;;;11.65;5.55;;;13.70;63.20;;;;;;5076173;28;20049;-71
2021/06/02 05:46:19;;;;;;;12.25;5.55;;;13.80;62.90;;;;;;5075546;28;20106;-71
2021/06/02 05:49:44;;;;;;;11.30;5.20;;;14.00;62.90;;;;;;5075493;28;20051;-71
2021/06/02 05:53:01;;;;;;;12.98;5.43;;;14.10;62.50;;;;;;5057547;28;20045;-71
2021/06/02 05:55:57;;;;;;;11.02;4.50;;;14.20;62.60;;;;;;5075342;28;20077;-72
2021/06/02 05:59:14;;;;;;;11.35;5.20;;;14.30;63.10;;;;;;5057488;28;20458;-72
2021/06/02 06:01:59;;;;;;;9.43;4.90;;;14.30;62.70;;;;;;5057455;28;20044;-72
2021/06/02 06:05:21;;;;;;;7.53;5.05;;;14.40;62.70;;;;;;5075146;28;20566;-72
2021/06/02 06:07:59;;;;;;;8.80;5.20;;;14.50;62.50;;;;;;5075214;28;20056;-72
2021/06/02 06:10:43;;;;;;;9.38;4.60;;;14.60;62.50;;;;;;5056992;28;20070;-72
2021/06/02 06:13:35;;;;;;;7.78;4.45;;;14.70;62.70;;;;;;5056982;28;20504;-72
2021/06/02 06:16:32;;;;;;;9.75;4.60;;;14.80;63.00;;;;;;5057367;28;20330;-71
2021/06/02 06:20:06;;;;;;;9.98;4.00;;;14.90;62.70;;;;;;5057039;28;20047;-72
2021/06/02 06:23:14;;;;;;;6.85;4.15;;;15.10;62.40;;;;;;5074916;28;20064;-72
2021/06/02 06:25:43;;;;;;;8.97;3.77;;;15.10;62.00;;;;;;5055803;28;20105;-72
2021/06/02 06:28:34;;;;;;;7.38;3.88;;;15.20;61.90;;;;;;5056882;28;20515;-71
2021/06/02 06:31:23;;;;;;;7.43;4.28;;;15.40;61.40;;;;;;5073598;28;20512;-72
2021/06/02 06:33:52;;;;;;;8.07;4.35;;;15.50;61.40;;;;;;5073333;28;20067;-72
2021/06/02 06:36:23;;;;;;;10.18;4.32;;;15.60;60.70;;;;;;5056870;28;20050;-72
2021/06/02 06:39:12;;;;;;;10.98;4.00;;;15.70;60.40;;;;;;5056632;28;20033;-72
2021/06/02 06:41:40;;;;;;;11.77;4.07;;;15.90;60.00;;;;;;5074848;28;20127;-71
2021/06/02 06:44:07;;;;;;;10.55;4.38;;;16.00;58.90;;;;;;5056520;28;20064;-71
2021/06/02 06:46:36;;;;;;;13.25;4.18;;;16.20;58.70;;;;;;5056479;28;20109;-72
2021/06/02 06:49:03;;;;;;;11.48;4.35;;;16.30;58.70;;;;;;5056376;28;20044;-72
2021/06/02 06:51:33;;;;;;;7.40;4.13;;;16.40;57.70;;;;;;5073228;28;20036;-71
2021/06/02 06:54:00;;;;;;;8.45;4.07;;;16.60;57.30;;;;;;5056231;28;20052;-72
2021/06/02 06:56:29;;;;;;;7.78;3.40;;;16.70;57.20;;;;;;5073092;28;20051;-72
2021/06/02 06:58:57;;;;;;;11.18;3.63;;;16.90;56.80;;;;;;5056336;28;20045;-72
2021/06/02 07:01:24;;;;;;;8.73;3.83;;;17.00;56.40;;;;;;5056288;28;20044;-72
2021/06/02 07:03:51;;;;;;;9.38;3.83;;;17.20;56.20;;;;;;5056250;28;20063;-71
2021/06/02 07:06:17;;;;;;;8.20;3.33;;;17.40;55.40;;;;;;5056131;28;20036;-71
2021/06/02 07:08:45;;;;;;;8.85;3.75;;;17.60;54.90;;;;;;5072667;28;20086;-73
2021/06/02 07:11:36;;;;;;;8.07;3.05;;;17.80;55.20;;;;;;5056102;28;20053;-72
2021/06/02 07:14:03;;;;;;;6.30;3.17;;;17.90;54.00;;;;;;5056643;28;20469;-72
2021/06/02 07:16:29;;;;;;;7.72;3.72;;;18.10;53.10;;;;;;5074060;28;20094;-72
2021/06/02 07:18:58;;;;;;;9.85;3.13;;;18.20;52.70;;;;;;5055876;28;20044;-72
2021/06/02 07:21:25;;;;;;;9.40;3.15;;;18.30;52.50;;;;;;5055898;28;20102;-72
2021/06/02 07:23:51;;;;;;;9.00;3.42;;;18.40;52.30;;;;;;5055849;28;20405;-71
2021/06/02 07:26:19;;;;;;;8.32;3.00;;;18.50;51.70;;;;;;5055811;28;20128;-72
2021/06/02 07:28:45;;;;;;;8.57;3.22;;;18.60;50.40;;;;;;5055627;28;20036;-71
2021/06/02 07:31:11;;;;;;;5.95;3.03;;;18.70;49.10;;;;;;5055845;28;20106;-71
2021/06/02 07:33:37;;;;;;;;;;;18.80;49.00;;;;;;5072661;28;20062;-72
2021/06/02 07:36:05;;;;;;;8.75;2.95;;;18.80;50.00;;;;;;5073280;28;19920;-72
2021/06/02 07:38:31;;;;;;;7.38;3.00;;;19.00;49.30;;;;;;5072208;28;20501;-72
2021/06/02 07:40:57;;;;;;;;;;;19.10;48.40;;;;;;5055938;28;20052;-72
2021/06/02 07:43:24;;;;;;;7.85;2.80;;;19.20;49.40;;;;;;5038216;28;19928;-72
2021/06/02 07:45:50;;;;;;;10.20;3.38;;;19.40;48.40;;;;;;5071626;28;20045;-72
2021/06/02 07:48:16;;;;;;;5.57;2.83;;;19.40;47.80;;;;;;5055426;28;20115;-72
2021/06/02 07:50:43;;;;;;;;;;;19.30;46.40;;;;;;5073964;28;20496;-72
2021/06/02 07:53:09;;;;;;;6.67;2.63;;;19.40;47.10;;;;;;5055172;28;19966;-71
2021/06/02 07:55:36;;;;;;;7.15;2.90;;;19.50;46.60;;;;;;5073144;28;20036;-72
2021/06/02 07:58:02;;;;;;;6.60;3.30;;;19.60;45.90;;;;;;5073140;28;20044;-71
2021/06/02 08:00:28;;;;;;;5.72;2.70;;;19.70;46.70;;;;;;5071661;28;20063;-72
2021/06/02 08:02:55;;;;;;;;;;;19.90;45.90;;;;;;5055652;28;20094;-72
2021/06/02 08:05:21;;;;;;;5.28;2.50;;;20.00;45.60;;;;;;5088541;28;19935;-72
2021/06/02 08:07:47;;;;;;;7.38;2.80;;;20.10;45.00;;;;;;5055023;28;20048;-72
2021/06/02 08:10:16;;;;;;;8.82;2.80;;;20.20;43.90;;;;;;5054845;28;20514;-72
2021/06/02 08:12:43;;;;;;;7.15;2.45;;;20.10;43.60;;;;;;5073101;28;20047;-72
2021/06/02 08:15:12;;;;;;;7.63;2.50;;;20.20;42.90;;;;;;5054695;28;20039;-72
2021/06/02 08:17:39;;;;;;;15.35;3.25;;;20.40;43.30;;;;;;5054935;28;20045;-72
2021/06/02 08:20:09;;;;;;;12.70;3.20;;;20.40;43.80;;;;;;5072770;28;20039;-72
2021/06/02 08:22:36;;;;;;;5.22;2.33;;;20.60;43.70;;;;;;5071636;28;20090;-72
2021/06/02 08:25:07;;;;;;;8.98;2.78;;;20.70;42.80;;;;;;5072517;28;20119;-72
2021/06/02 08:27:33;;;;;;;7.35;2.90;;;20.80;43.20;;;;;;5054883;28;20053;-72
2021/06/02 08:30:00;;;;;;;5.05;2.53;;;20.90;43.80;;;;;;5072510;28;20037;-72
2021/06/02 08:32:26;;;;;;;7.65;4.10;;;21.00;42.50;;;;;;5054656;28;20048;-72
2021/06/02 08:34:54;;;;;;;57.60;26.33;;;21.10;43.80;;;;;;5072479;28;20225;-72
2021/06/02 08:37:20;;;;;;;8.13;3.38;;;21.20;41.50;;;;;;5054611;28;20731;-72
2021/06/02 08:39:47;;;;;;;10.80;4.80;;;21.20;39.90;;;;;;5072618;28;20040;-72
2021/06/02 08:42:15;;;;;;;7.03;2.35;;;21.40;40.90;;;;;;5054695;28;20484;-73
2021/06/02 08:44:41;;;;;;;8.63;3.67;;;21.50;40.60;;;;;;5037955;28;20058;-73
2021/06/02 08:47:07;;;;;;;6.32;3.00;;;21.60;39.30;;;;;;5054914;28;20519;-72
2021/06/02 08:49:33;;;;;;;;;;;21.60;40.80;;;;;;5059193;28;20460;-72
2021/06/02 08:52:18;;;;;;;5.15;2.63;;;21.70;39.90;;;;;;5058515;28;19941;-72
2021/06/02 08:54:44;;;;;;;10.63;5.07;;;21.70;37.90;;;;;;5075271;28;20045;-72
2021/06/02 08:57:11;;;;;;;7.47;2.97;;;21.80;38.70;;;;;;5075413;28;20116;-72
2021/06/02 08:59:38;;;;;;;10.77;3.25;;;22.00;38.60;;;;;;5076453;28;20484;-72
2021/06/02 09:02:05;;;;;;;12.55;4.22;;;22.10;37.50;;;;;;5058662;28;20481;-72
2021/06/02 09:04:33;;;;;;;7.40;2.67;;;22.20;36.80;;;;;;5076353;28;20127;-72
2021/06/02 09:07:05;;;;;;;16.65;8.80;;;22.40;36.00;;;;;;5058824;28;20076;-72
2021/06/02 09:09:33;;;;;;;7.40;2.70;;;22.60;35.40;;;;;;5058509;28;20047;-73
2021/06/02 09:12:06;;;;;;;9.82;3.03;;;22.80;33.30;;;;;;5058543;28;20037;-72
2021/06/02 09:14:37;;;;;;;9.15;3.28;;;23.10;33.30;;;;;;5058348;28;20063;-72
2021/06/02 09:17:24;;;;;;;12.68;5.22;;;23.50;33.80;;;;;;5058737;28;20123;-72
2021/06/02 09:19:50;;;;;;;11.35;3.55;;;24.20;33.50;;;;;;5041507;28;20045;-72
2021/06/02 09:22:19;;;;;;;6.07;1.85;;;25.00;31.60;;;;;;5076532;28;20072;-71
2021/06/02 09:25:05;;;;;;;12.68;3.97;;;25.70;29.80;;;;;;5058071;28;20040;-72
2021/06/02 09:27:54;;;;;;;14.77;3.35;;;26.50;29.70;;;;;;5058049;28;20056;-72
2021/06/02 09:30:41;;;;;;;4.78;2.20;;;27.10;28.60;;;;;;5058601;28;20064;-72
2021/06/02 09:33:08;;;;;;;4.95;2.17;;;27.50;27.40;;;;;;5075815;28;20385;-73
2021/06/02 09:35:41;;;;;;;9.70;2.88;;;28.20;26.20;;;;;;5058020;28;20043;-72
2021/06/02 09:38:28;;;;;;;44.83;11.30;;;28.80;25.90;;;;;;5057907;28;20075;-72
2021/06/02 09:40:57;;;;;;;27.08;7.50;;;29.60;25.90;;;;;;5075863;28;20041;-72
2021/06/02 09:43:42;;;;;;;7.40;2.58;;;30.30;25.60;;;;;;5057689;28;20032;-72
2021/06/02 09:46:10;;;;;;;9.20;2.58;;;31.00;25.30;;;;;;5057554;28;20032;-72
2021/06/02 09:49:14;;;;;;;8.93;3.38;;;31.60;23.10;;;;;;5041160;28;20036;-72
2021/06/02 09:51:41;;;;;;;5.25;2.05;;;32.30;24.30;;;;;;5074429;28;20734;-72
2021/06/02 09:54:10;;;;;;;5.28;2.20;;;33.00;23.20;;;;;;5075206;28;20060;-72
2021/06/02 09:56:55;;;;;;;7.30;3.13;;;33.60;22.00;;;;;;5075793;28;20072;-72
2021/06/02 09:59:21;;;;;;;6.47;2.15;;;34.10;21.90;;;;;;5057128;28;20044;-72
2021/06/02 10:02:15;;;;;;;6.03;2.40;;;34.70;21.00;;;;;;5057441;28;20048;-72
2021/06/02 10:04:42;;;;;;;7.25;2.65;;;35.10;21.00;;;;;;5057250;28;20079;-72
2021/06/02 10:07:26;;;;;;;5.63;2.00;;;35.80;20.00;;;;;;5075607;28;20441;-73
2021/06/02 10:09:53;;;;;;;11.25;2.58;;;36.50;19.00;;;;;;5040518;28;20176;-72
2021/06/02 10:12:19;;;;;;;7.03;2.53;;;37.10;18.70;;;;;;5057386;28;20124;-73
2021/06/02 10:15:05;;;;;;;6.28;2.65;;;37.60;17.50;;;;;;5074935;28;20493;-72
2021/06/02 10:17:50;;;;;;;;;;;38.10;18.10;;;;;;5075703;28;20055;-72
2021/06/02 10:20:17;;;;;;;4.47;2.15;;;38.90;18.50;;;;;;5075045;28;19913;-73
2021/06/02 10:23:10;;;;;;;6.95;2.60;;;39.60;16.50;;;;;;5056496;28;20451;-73
2021/06/02 10:25:36;;;;;;;5.72;2.53;;;39.90;16.60;;;;;;5056270;28;20047;-73
2021/06/02 10:28:05;;;;;;;9.98;2.65;;;39.90;14.40;;;;;;5057064;28;20048;-72
2021/06/02 10:30:31;;;;;;;4.63;2.22;;;40.30;15.50;;;;;;5040428;28;20094;-73
2021/06/02 10:32:58;;;;;;;4.47;2.10;;;40.80;14.80;;;;;;5073403;28;20045;-73
2021/06/02 10:35:24;;;;;;;4.97;2.15;;;41.10;15.40;;;;;;5074749;28;20086;-72
2021/06/02 10:37:54;;;;;;;9.00;2.88;;;41.60;14.40;;;;;;5040052;28;20037;-73
2021/06/02 10:40:23;;;;;;;4.15;2.13;;;42.30;14.40;;;;;;5056714;28;20113;-73
2021/06/02 10:43:28;;;;;;;8.85;2.45;;;42.70;14.20;;;;;;5073383;28;20087;-73
2021/06/02 10:46:17;;;;;;;8.55;3.20;;;42.70;14.60;;;;;;5073317;28;20043;-73
2021/06/02 10:49:04;;;;;;;4.30;2.10;;;43.20;14.30;;;;;;5056312;28;20140;-72
2021/06/02 10:54:36;;;;;;;12.43;5.63;;;43.70;12.60;;;;;;5054322;28;20103;-72
2021/06/02 10:57:03;;;;;;;7.25;2.40;;;44.10;12.80;;;;;;5071531;28;20036;-73
2021/06/02 10:59:34;;;;;;;4.45;2.33;;;44.30;12.90;;;;;;5074073;28;20044;-72
2021/06/02 11:02:29;;;;;;;6.93;3.33;;;44.70;12.90;;;;;;5074497;28;20500;-73
2021/06/02 11:04:55;;;;;;;5.47;2.30;;;45.10;13.10;;;;;;5074004;28;20044;-73
2021/06/02 11:07:41;;;;;;;5.68;2.53;;;45.60;12.30;;;;;;5074580;28;20039;-72
2021/06/02 11:10:08;;;;;;;6.40;3.15;;;45.70;11.70;;;;;;5073250;28;20497;-73
2021/06/02 11:12:50;;;;;;;6.25;2.50;;;45.80;11.80;;;;;;5073780;28;20091;-73
2021/06/02 11:15:31;;;;;;;5.53;2.08;;;46.10;12.40;;;;;;5073923;28;20075;-73
2021/06/02 11:18:09;;;;;;;4.30;2.10;;;46.10;11.60;;;;;;5073817;28;20123;-72
2021/06/02 11:20:44;;;;;;;4.40;1.92;;;46.20;11.50;;;;;;5073871;28;20036;-73
2021/06/02 11:23:13;;;;;;;5.45;2.60;;;46.50;11.40;;;;;;5055999;28;20128;-73
2021/06/02 11:25:41;;;;;;;6.03;3.88;;;46.90;10.90;;;;;;5055918;28;20505;-72
2021/06/02 11:28:14;;;;;;;5.03;2.58;;;47.30;11.30;;;;;;5038956;28;20048;-73
2021/06/02 11:30:40;;;;;;;5.63;2.67;;;47.60;11.20;;;;;;5070408;28;20072;-73
2021/06/02 11:33:31;;;;;;;6.25;3.00;;;47.80;10.90;;;;;;5055665;28;20052;-72
2021/06/02 11:36:16;;;;;;;6.40;2.60;;;47.90;10.90;;;;;;5055625;28;20159;-73
2021/06/02 11:38:44;;;;;;;4.47;2.33;;;48.00;10.90;;;;;;5055535;28;20119;-73
2021/06/02 11:41:13;;;;;;;4.93;2.53;;;48.10;9.70;;;;;;5072342;28;20420;-73
2021/06/02 11:43:40;;;;;;;5.00;2.88;;;48.40;10.00;;;;;;5073218;28;20040;-73
2021/06/02 11:46:06;;;;;;;5.72;2.55;;;48.60;9.60;;;;;;5055613;28;20432;-73
2021/06/02 11:48:35;;;;;;;4.78;2.80;;;48.80;10.00;;;;;;5055591;28;20052;-73
2021/06/02 11:51:06;;;;;;;12.55;5.32;;;49.20;10.50;;;;;;5038742;28;20400;-72
2021/06/02 11:53:51;;;;;;;5.50;3.00;;;49.30;10.20;;;;;;5073058;28;20064;-73
2021/06/02 11:56:19;;;;;;;13.65;4.70;;;49.50;10.30;;;;;;5073105;28;20048;-73
2021/06/02 11:58:48;;;;;;;7.35;3.38;;;49.80;10.00;;;;;;5055142;28;20119;-73
2021/06/02 12:01:20;;;;;;;5.95;3.30;;;49.60;9.50;;;;;;5072043;28;20052;-73
2021/06/02 12:03:57;;;;;;;11.80;4.88;;;49.70;9.70;;;;;;5055214;28;20040;-72
2021/06/02 12:06:42;;;;;;;7.32;3.40;;;49.60;10.00;;;;;;5055233;28;20040;-73
2021/06/02 12:09:27;;;;;;;5.20;2.80;;;49.80;10.00;;;;;;5055126;28;20097;-73
2021/06/02 12:11:53;;;;;;;6.00;3.42;;;49.90;9.50;;;;;;5073287;28;20045;-73
2021/06/02 12:14:21;;;;;;;6.15;2.65;;;49.80;9.90;;;;;;5054970;28;20117;-73
2021/06/02 12:16:47;;;;;;;5.22;3.00;;;49.90;9.60;;;;;;5055154;28;20045;-73
2021/06/02 12:19:14;;;;;;;6.00;3.03;;;50.00;10.00;;;;;;5072812;28;20047;-73
2021/06/02 12:21:41;;;;;;;6.32;3.60;;;49.80;9.70;;;;;;5055105;28;20040;-73
2021/06/02 12:24:09;;;;;;;6.53;3.33;;;49.80;9.90;;;;;;5072722;28;20401;-73
2021/06/02 12:26:42;;;;;;;4.82;2.63;;;49.80;8.70;;;;;;5055021;28;20388;-73
2021/06/02 12:29:31;;;;;;;7.95;3.63;;;49.80;9.10;;;;;;5071463;28;20040;-73
2021/06/02 12:32:00;;;;;;;7.88;3.05;;;49.80;9.70;;;;;;5055011;28;20037;-73
2021/06/02 12:34:45;;;;;;;4.22;2.67;;;50.20;9.70;;;;;;5072585;28;20052;-73
2021/06/02 12:37:14;;;;;;;5.63;2.88;;;49.90;9.70;;;;;;5071547;28;20048;-72
2021/06/02 12:39:42;;;;;;;4.38;2.50;;;50.10;9.90;;;;;;5071403;28;20090;-72
2021/06/02 12:42:12;;;;;;;7.13;2.50;;;50.00;10.10;;;;;;5055082;28;20063;-73
2021/06/02 12:44:40;;;;;;;5.03;2.70;;;49.80;10.10;;;;;;5072536;28;20060;-72
2021/06/02 12:47:26;;;;;;;8.07;2.50;;;50.00;10.00;;;;;;5072454;28;20037;-73
2021/06/02 12:49:56;;;;;;;10.00;2.80;;;49.80;9.80;;;;;;5054509;28;20067;-72
2021/06/02 12:52:24;;;;;;;5.88;2.88;;;49.90;10.00;;;;;;5070985;28;20052;-73
2021/06/02 12:54:50;;;;;;;5.28;2.58;;;50.00;10.30;;;;;;5072410;28;20040;-73
2021/06/02 12:57:23;;;;;;;8.23;3.35;;;49.50;10.00;;;;;;5072918;28;20108;-72
2021/06/02 12:59:49;;;;;;;5.47;2.80;;;49.30;10.20;;;;;;5072497;28;20093;-72
2021/06/02 13:02:15;;;;;;;6.30;2.90;;;49.30;9.90;;;;;;5071363;28;20048;-73
2021/06/02 13:04:41;;;;;;;5.95;3.53;;;49.40;9.80;;;;;;5054457;28;20041;-73
2021/06/02 13:07:07;;;;;;;4.95;2.80;;;49.30;10.40;;;;;;5072785;28;20033;-72
2021/06/02 13:12:03;;;;;;;5.32;2.45;;;48.60;10.10;;;;;;5072682;28;20048;-72
2021/06/02 13:14:47;;;;;;;7.38;2.72;;;48.40;9.70;;;;;;5072184;28;20037;-72
2021/06/02 13:17:13;;;;;;;5.10;2.50;;;48.00;10.30;;;;;;5072781;28;20040;-73
2021/06/02 13:19:43;;;;;;;5.43;2.75;;;47.80;10.10;;;;;;5072102;28;20041;-72
2021/06/02 13:22:28;;;;;;;5.18;2.90;;;47.40;10.80;;;;;;5054375;28;20037;-73
2021/06/02 13:25:02;;;;;;;4.97;2.65;;;46.40;11.60;;;;;;5054087;28;20052;-72
2021/06/02 13:27:28;;;;;;;4.80;2.50;;;45.10;12.50;;;;;;5072228;28;20091;-72
2021/06/02 13:30:14;;;;;;;5.28;2.03;;;43.60;13.10;;;;;;5072136;28;20056;-72
2021/06/02 13:32:55;;;;;;;10.10;2.55;;;41.70;13.80;;;;;;5054318;28;20489;-72
2021/06/02 13:35:21;;;;;;;6.43;2.97;;;40.60;14.70;;;;;;5075715;28;20041;-73
2021/06/02 13:37:48;;;;;;;5.75;3.95;;;39.60;15.00;;;;;;5057917;28;20131;-72
2021/06/02 13:40:18;;;;;;;6.85;2.60;;;38.50;16.20;;;;;;5074539;28;20112;-72
2021/06/02 13:43:22;;;;;;;5.45;2.88;;;37.40;17.50;;;;;;5057859;28;20040;-72
2021/06/02 13:46:09;;;;;;;4.18;2.35;;;36.40;18.00;;;;;;5057742;28;20032;-72
2021/06/02 13:48:50;;;;;;;4.63;2.38;;;35.70;18.00;;;;;;5074413;28;20044;-72
2021/06/02 13:51:43;;;;;;;5.28;2.10;;;35.30;19.40;;;;;;5074443;28;20036;-72
2021/06/02 13:54:46;;;;;;;8.02;2.40;;;35.10;19.20;;;;;;5057488;28;20051;-73
2021/06/02 13:57:14;;;;;;;5.32;2.38;;;34.70;19.00;;;;;;5057219;28;20130;-73
2021/06/02 13:59:59;;;;;;;10.55;3.47;;;34.20;19.70;;;;;;5057739;28;20584;-72
2021/06/02 14:02:28;;;;;;;5.70;2.22;;;34.00;20.00;;;;;;5057542;28;20056;-73
2021/06/02 14:05:01;;;;;;;9.77;2.30;;;33.70;19.30;;;;;;5057097;28;20040;-72